createdAt,value
2019-05-13T00:00:53.714Z,0.00
2019-05-13T00:01:51.101Z,0.00
2019-05-13T00:02:51.091Z,0.00
2019-05-13T00:03:51.119Z,0.00
2019-05-13T00:04:53.111Z,0.00
2019-05-13T00:05:53.223Z,0.00
2019-05-13T00:06:54.428Z,0.00
2019-05-13T00:07:53.970Z,0.00
2019-05-13T00:08:51.035Z,0.00
2019-05-13T00:09:51.072Z,0.00
2019-05-13T00:10:51.019Z,0.00
2019-05-13T00:11:51.002Z,0.00
2019-05-13T00:12:53.793Z,0.00
2019-05-13T00:13:50.980Z,0.00
2019-05-13T00:14:50.973Z,0.00
2019-05-13T00:15:50.980Z,0.00
2019-05-13T00:16:53.484Z,0.00
2019-05-13T00:17:50.936Z,0.00
2019-05-13T00:18:53.344Z,0.00
2019-05-13T00:19:53.130Z,0.00
2019-05-13T00:20:50.897Z,0.00
2019-05-13T00:21:50.944Z,0.00
2019-05-13T00:22:50.914Z,0.00
2019-05-13T00:23:50.859Z,0.00
2019-05-13T00:24:50.879Z,0.00
2019-05-13T00:25:50.839Z,0.00
2019-05-13T00:26:53.094Z,0.00
2019-05-13T00:27:53.517Z,0.00
2019-05-13T00:28:50.809Z,0.00
2019-05-13T00:29:50.795Z,0.00
2019-05-13T00:30:50.785Z,0.00
2019-05-13T00:31:50.774Z,0.00
2019-05-13T00:32:50.774Z,0.00
2019-05-13T00:33:53.126Z,0.00
2019-05-13T00:34:50.748Z,0.00
2019-05-13T00:35:50.731Z,0.00
2019-05-13T00:37:06.889Z,0.00
2019-05-13T00:37:54.145Z,0.00
2019-05-13T00:38:50.705Z,0.00
2019-05-13T00:39:50.914Z,0.00
2019-05-13T00:40:50.697Z,0.00
2019-05-13T00:41:50.685Z,0.00
2019-05-13T00:42:50.656Z,0.00
2019-05-13T00:43:50.645Z,0.00
2019-05-13T00:44:50.636Z,0.00
2019-05-13T00:45:50.654Z,0.00
2019-05-13T00:46:50.616Z,0.00
2019-05-13T00:47:50.638Z,0.00
2019-05-13T00:48:50.604Z,0.00
2019-05-13T00:49:50.585Z,0.00
2019-05-13T00:50:50.573Z,0.00
2019-05-13T00:51:50.609Z,0.00
2019-05-13T00:52:50.550Z,0.00
2019-05-13T00:53:50.541Z,0.00
2019-05-13T00:54:50.538Z,0.00
2019-05-13T00:55:50.526Z,0.00
2019-05-13T00:56:50.619Z,0.00
2019-05-13T00:57:50.700Z,0.00
2019-05-13T00:58:50.488Z,0.00
2019-05-13T00:59:50.476Z,0.00
2019-05-13T01:00:50.518Z,0.00
2019-05-13T01:01:50.456Z,0.00
2019-05-13T01:02:50.456Z,0.00
2019-05-13T01:03:50.489Z,0.00
2019-05-13T01:04:53.506Z,0.00
2019-05-13T01:05:50.416Z,0.00
2019-05-13T01:06:50.402Z,0.00
2019-05-13T01:07:50.483Z,0.00
2019-05-13T01:08:50.388Z,0.00
2019-05-13T01:09:50.405Z,0.00
2019-05-13T01:10:50.406Z,0.00
2019-05-13T01:11:50.366Z,0.00
2019-05-13T01:12:50.351Z,0.00
2019-05-13T01:13:50.342Z,0.00
2019-05-13T01:14:50.335Z,0.00
2019-05-13T01:15:50.373Z,0.00
2019-05-13T01:16:50.295Z,0.00
2019-05-13T01:17:50.500Z,0.00
2019-05-13T01:18:50.283Z,0.00
2019-05-13T01:19:50.289Z,0.00
2019-05-13T01:20:50.256Z,0.00
2019-05-13T01:21:50.322Z,0.00
2019-05-13T01:22:50.243Z,0.00
2019-05-13T01:23:50.262Z,0.00
2019-05-13T01:24:50.215Z,0.00
2019-05-13T01:25:50.257Z,0.00
2019-05-13T01:26:50.190Z,0.00
2019-05-13T01:27:50.392Z,0.00
2019-05-13T01:28:50.171Z,0.00
2019-05-13T01:29:50.221Z,0.00
2019-05-13T01:30:50.148Z,0.00
2019-05-13T01:31:50.145Z,0.00
2019-05-13T01:32:50.127Z,0.00
2019-05-13T01:33:50.169Z,0.00
2019-05-13T01:34:50.101Z,0.00
2019-05-13T01:35:50.103Z,0.00
2019-05-13T01:36:50.089Z,0.00
2019-05-13T01:37:50.074Z,0.00
2019-05-13T01:38:50.067Z,0.00
2019-05-13T01:39:50.135Z,0.00
2019-05-13T01:40:50.050Z,0.00
2019-05-13T01:41:50.042Z,0.00
2019-05-13T01:42:50.025Z,0.00
2019-05-13T01:43:50.018Z,0.00
2019-05-13T01:44:50.026Z,0.00
2019-05-13T01:45:50.040Z,0.00
2019-05-13T01:46:50.002Z,0.00
2019-05-13T01:47:49.990Z,0.00
2019-05-13T01:48:49.962Z,0.00
2019-05-13T01:49:49.948Z,0.00
2019-05-13T01:50:49.967Z,0.00
2019-05-13T01:51:49.973Z,0.00
2019-05-13T01:52:49.923Z,0.00
2019-05-13T01:53:49.909Z,0.00
2019-05-13T01:54:49.895Z,0.00
2019-05-13T01:55:49.986Z,0.00
2019-05-13T01:56:49.875Z,0.00
2019-05-13T01:57:49.907Z,0.00
2019-05-13T01:58:49.883Z,0.00
2019-05-13T01:59:49.898Z,0.00
2019-05-13T02:00:51.703Z,0.00
2019-05-13T02:01:49.814Z,0.00
2019-05-13T02:02:49.819Z,0.00
2019-05-13T02:03:49.873Z,0.00
2019-05-13T02:04:49.780Z,0.00
2019-05-13T02:05:49.822Z,0.00
2019-05-13T02:06:49.762Z,0.00
2019-05-13T02:07:57.667Z,0.00
2019-05-13T02:08:50.781Z,0.00
2019-05-13T02:09:49.766Z,0.00
2019-05-13T02:10:49.717Z,0.00
2019-05-13T02:11:49.836Z,0.00
2019-05-13T02:12:49.697Z,0.00
2019-05-13T02:13:49.720Z,0.00
2019-05-13T02:14:49.735Z,0.00
2019-05-13T02:15:49.666Z,0.00
2019-05-13T02:16:49.653Z,0.00
2019-05-13T02:17:49.642Z,0.00
2019-05-13T02:18:49.629Z,0.00
2019-05-13T02:19:49.622Z,0.00
2019-05-13T02:20:49.666Z,0.00
2019-05-13T02:21:49.603Z,0.00
2019-05-13T02:22:49.591Z,0.00
2019-05-13T02:23:49.576Z,0.00
2019-05-13T02:24:49.568Z,0.00
2019-05-13T02:25:49.555Z,0.00
2019-05-13T02:26:49.575Z,0.00
2019-05-13T02:27:49.536Z,0.00
2019-05-13T02:28:49.527Z,0.00
2019-05-13T02:29:49.525Z,0.00
2019-05-13T02:30:49.512Z,0.00
2019-05-13T02:31:55.127Z,0.00
2019-05-13T02:32:53.121Z,0.00
2019-05-13T02:33:49.503Z,0.00
2019-05-13T02:34:49.462Z,0.00
2019-05-13T02:35:52.666Z,0.00
2019-05-13T02:36:52.524Z,0.00
2019-05-13T02:37:52.441Z,0.00
2019-05-13T02:38:49.447Z,0.00
2019-05-13T02:39:49.416Z,0.00
2019-05-13T02:40:52.405Z,0.00
2019-05-13T02:41:52.670Z,0.00
2019-05-13T02:42:52.126Z,0.00
2019-05-13T02:43:52.404Z,0.00
2019-05-13T02:44:52.760Z,0.00
2019-05-13T02:45:52.782Z,0.00
2019-05-13T02:46:52.274Z,0.00
2019-05-13T02:47:52.004Z,0.00
2019-05-13T02:48:52.571Z,0.00
2019-05-13T02:49:49.300Z,0.00
2019-05-13T02:50:52.544Z,0.00
2019-05-13T02:51:49.285Z,0.00
2019-05-13T02:52:49.289Z,0.00
2019-05-13T02:53:52.193Z,0.00
2019-05-13T02:54:52.505Z,0.00
2019-05-13T02:55:51.656Z,0.00
2019-05-13T02:56:52.475Z,0.00
2019-05-13T02:57:52.672Z,0.00
2019-05-13T02:58:52.428Z,0.00
2019-05-13T02:59:51.906Z,0.00
2019-05-13T03:00:53.134Z,0.00
2019-05-13T03:01:53.009Z,0.00
2019-05-13T03:02:52.246Z,0.00
2019-05-13T03:03:52.540Z,0.00
2019-05-13T03:04:52.053Z,0.00
2019-05-13T03:05:52.340Z,0.00
2019-05-13T03:06:51.989Z,0.00
2019-05-13T03:07:52.960Z,0.00
2019-05-13T03:08:53.241Z,4.00
2019-05-13T03:09:52.650Z,4.00
2019-05-13T03:10:52.731Z,0.00
2019-05-13T03:11:53.227Z,0.00
2019-05-13T03:12:49.065Z,4.00
2019-05-13T03:13:49.055Z,4.00
2019-05-13T03:14:49.071Z,4.00
2019-05-13T03:15:52.221Z,8.00
2019-05-13T03:16:51.781Z,4.00
2019-05-13T03:17:52.344Z,4.00
2019-05-13T03:18:52.135Z,8.00
2019-05-13T03:19:52.699Z,12.00
2019-05-13T03:20:52.642Z,12.00
2019-05-13T03:21:52.066Z,12.00
2019-05-13T03:22:52.277Z,16.00
2019-05-13T03:23:52.240Z,16.00
2019-05-13T03:24:52.077Z,20.00
2019-05-13T03:25:48.915Z,24.00
2019-05-13T03:26:48.951Z,28.00
2019-05-13T03:27:48.889Z,32.00
2019-05-13T03:28:52.172Z,40.00
2019-05-13T03:29:48.866Z,44.00
2019-05-13T03:30:48.881Z,48.00
2019-05-13T03:31:48.865Z,56.00
2019-05-13T03:32:58.523Z,64.00
2019-05-13T03:33:55.515Z,76.00
2019-05-13T03:34:55.183Z,84.00
2019-05-13T03:35:54.915Z,96.00
2019-05-13T03:36:55.891Z,112.00
2019-05-13T03:37:52.717Z,124.00
2019-05-13T03:39:01.629Z,140.00
2019-05-13T03:39:52.370Z,160.00
2019-05-13T03:40:48.759Z,180.00
2019-05-13T03:41:48.737Z,200.00
2019-05-13T03:42:48.734Z,220.00
2019-05-13T03:43:48.760Z,244.00
2019-05-13T03:44:52.269Z,272.00
2019-05-13T03:45:48.715Z,300.00
2019-05-13T03:46:48.696Z,332.00
2019-05-13T03:47:48.675Z,364.00
2019-05-13T03:48:48.663Z,396.00
2019-05-13T03:49:48.713Z,432.00
2019-05-13T03:50:48.656Z,472.00
2019-05-13T03:51:48.636Z,512.00
2019-05-13T03:52:48.623Z,556.00
2019-05-13T03:53:48.610Z,596.00
2019-05-13T03:54:51.855Z,644.00
2019-05-13T03:55:48.620Z,692.00
2019-05-13T03:56:48.578Z,740.00
2019-05-13T03:57:48.567Z,788.00
2019-05-13T03:58:48.556Z,840.00
2019-05-13T03:59:48.545Z,896.00
2019-05-13T04:00:48.536Z,948.00
2019-05-13T04:01:52.186Z,1004.00
2019-05-13T04:02:48.522Z,1064.00
2019-05-13T04:03:48.503Z,1124.00
2019-05-13T04:04:48.500Z,1180.00
2019-05-13T04:05:48.495Z,1240.00
2019-05-13T04:06:48.492Z,1300.00
2019-05-13T04:07:48.504Z,1360.00
2019-05-13T04:08:48.460Z,1412.00
2019-05-13T04:09:48.485Z,1468.00
2019-05-13T04:10:48.435Z,1524.00
2019-05-13T04:11:48.419Z,1580.00
2019-05-13T04:12:48.418Z,1640.00
2019-05-13T04:13:48.494Z,1700.00
2019-05-13T04:14:48.390Z,1768.00
2019-05-13T04:15:48.389Z,1840.00
2019-05-13T04:16:48.384Z,1904.00
2019-05-13T04:17:48.442Z,1972.00
2019-05-13T04:18:48.380Z,2040.00
2019-05-13T04:19:48.386Z,2108.00
2019-05-13T04:20:48.319Z,2176.00
2019-05-13T04:21:48.322Z,2240.00
2019-05-13T04:22:48.302Z,2304.00
2019-05-13T04:23:48.297Z,2372.00
2019-05-13T04:24:48.304Z,2440.00
2019-05-13T04:25:48.310Z,2508.00
2019-05-13T04:26:48.261Z,2584.00
2019-05-13T04:27:48.250Z,2656.00
2019-05-13T04:28:48.246Z,2732.00
2019-05-13T04:29:48.240Z,2820.00
2019-05-13T04:30:48.251Z,2904.00
2019-05-13T04:31:48.275Z,2992.00
2019-05-13T04:32:48.201Z,3084.00
2019-05-13T04:33:48.212Z,3188.00
2019-05-13T04:34:48.170Z,3296.00
2019-05-13T04:35:48.158Z,3404.00
2019-05-13T04:36:48.180Z,3504.00
2019-05-13T04:37:48.431Z,3612.00
2019-05-13T04:38:48.142Z,3724.00
2019-05-13T04:39:52.677Z,3820.00
2019-05-13T04:40:49.106Z,3920.00
2019-05-13T04:41:48.095Z,4020.00
2019-05-13T04:42:48.103Z,4108.00
2019-05-13T04:43:48.122Z,4184.00
2019-05-13T04:44:48.066Z,4260.00
2019-05-13T04:45:48.128Z,4336.00
2019-05-13T04:46:48.153Z,4404.00
2019-05-13T04:47:48.034Z,4484.00
2019-05-13T04:48:48.030Z,4588.00
2019-05-13T04:49:48.060Z,4652.00
2019-05-13T04:50:48.054Z,4660.00
2019-05-13T04:51:47.994Z,4840.00
2019-05-13T04:52:47.976Z,4964.00
2019-05-13T04:53:53.327Z,5064.00
2019-05-13T04:54:52.509Z,5120.00
2019-05-13T04:55:47.951Z,5192.00
2019-05-13T04:56:47.934Z,5220.00
2019-05-13T04:57:47.926Z,5208.00
2019-05-13T04:58:47.931Z,5208.00
2019-05-13T04:59:47.903Z,5176.00
2019-05-13T05:00:56.445Z,4716.00
2019-05-13T05:01:57.801Z,4752.00
2019-05-13T05:02:51.304Z,4912.00
2019-05-13T05:03:48.857Z,5036.00
2019-05-13T05:04:47.849Z,5100.00
2019-05-13T05:05:47.863Z,5204.00
2019-05-13T05:06:47.928Z,5244.00
2019-05-13T05:07:47.824Z,5232.00
2019-05-13T05:08:48.162Z,5244.00
2019-05-13T05:10:13.175Z,4916.00
2019-05-13T05:10:51.126Z,4792.00
2019-05-13T05:11:48.825Z,4564.00
2019-05-13T05:12:47.765Z,4860.00
2019-05-13T05:13:47.752Z,4836.00
2019-05-13T05:14:47.746Z,4512.00
2019-05-13T05:15:47.733Z,4500.00
2019-05-13T05:16:47.731Z,4268.00
2019-05-13T05:17:47.778Z,4108.00
2019-05-13T05:18:47.701Z,4124.00
2019-05-13T05:19:47.932Z,4328.00
2019-05-13T05:20:47.689Z,4536.00
2019-05-13T05:21:47.677Z,4604.00
2019-05-13T05:22:47.656Z,4680.00
2019-05-13T05:23:47.719Z,4780.00
2019-05-13T05:24:47.636Z,4948.00
2019-05-13T05:25:47.626Z,5132.00
2019-05-13T05:26:47.612Z,5108.00
2019-05-13T05:27:47.599Z,4956.00
2019-05-13T05:28:47.594Z,5148.00
2019-05-13T05:29:47.652Z,5216.00
2019-05-13T05:30:47.572Z,5392.00
2019-05-13T05:31:47.567Z,5384.00
2019-05-13T05:32:47.549Z,5368.00
2019-05-13T05:33:47.576Z,5316.00
2019-05-13T05:34:47.523Z,5192.00
2019-05-13T05:35:47.610Z,5156.00
2019-05-13T05:36:47.504Z,5112.00
2019-05-13T05:37:47.494Z,5064.00
2019-05-13T05:38:47.487Z,5124.00
2019-05-13T05:39:47.472Z,5152.00
2019-05-13T05:40:47.464Z,5132.00
2019-05-13T05:41:47.531Z,5368.00
2019-05-13T05:42:47.446Z,5356.00
2019-05-13T05:43:47.426Z,5592.00
2019-05-13T05:44:47.420Z,5512.00
2019-05-13T05:45:47.407Z,5404.00
2019-05-13T05:46:47.432Z,5580.00
2019-05-13T05:47:47.456Z,5416.00
2019-05-13T05:48:50.050Z,5136.00
2019-05-13T05:49:48.364Z,5572.00
2019-05-13T05:50:47.354Z,5840.00
2019-05-13T05:51:47.341Z,5908.00
2019-05-13T05:52:47.332Z,6024.00
2019-05-13T05:53:47.389Z,5864.00
2019-05-13T05:54:47.312Z,5696.00
2019-05-13T05:55:47.298Z,6036.00
2019-05-13T05:56:47.285Z,6164.00
2019-05-13T05:57:47.292Z,6068.00
2019-05-13T05:58:47.266Z,6272.00
2019-05-13T05:59:47.311Z,6160.00
2019-05-13T06:00:47.244Z,6256.00
2019-05-13T06:01:47.242Z,6424.00
2019-05-13T06:02:47.224Z,6524.00
2019-05-13T06:03:47.208Z,5880.00
2019-05-13T06:04:47.199Z,5980.00
2019-05-13T06:05:47.238Z,6328.00
2019-05-13T06:06:47.180Z,6460.00
2019-05-13T06:07:47.163Z,6640.00
2019-05-13T06:08:47.152Z,6460.00
2019-05-13T06:09:47.145Z,6400.00
2019-05-13T06:10:50.462Z,6748.00
2019-05-13T06:11:48.197Z,7188.00
2019-05-13T06:12:47.116Z,7240.00
2019-05-13T06:13:47.099Z,7276.00
2019-05-13T06:14:47.091Z,7340.00
2019-05-13T06:15:47.080Z,7344.00
2019-05-13T06:16:47.079Z,7460.00
2019-05-13T06:17:47.137Z,7208.00
2019-05-13T06:18:47.054Z,7172.00
2019-05-13T06:19:47.397Z,7500.00
2019-05-13T06:20:47.137Z,7760.00
2019-05-13T06:21:47.215Z,7648.00
2019-05-13T06:22:47.085Z,7732.00
2019-05-13T06:23:47.052Z,7852.00
2019-05-13T06:24:46.979Z,8272.00
2019-05-13T06:25:46.972Z,8756.00
2019-05-13T06:26:46.958Z,8924.00
2019-05-13T06:27:46.945Z,8804.00
2019-05-13T06:28:46.957Z,8616.00
2019-05-13T06:29:49.166Z,8776.00
2019-05-13T06:30:46.934Z,8704.00
2019-05-13T06:31:46.955Z,8756.00
2019-05-13T06:32:46.900Z,8796.00
2019-05-13T06:33:46.880Z,8832.00
2019-05-13T06:34:46.873Z,8656.00
2019-05-13T06:35:46.905Z,8844.00
2019-05-13T06:36:46.848Z,8640.00
2019-05-13T06:37:46.858Z,8864.00
2019-05-13T06:38:46.826Z,8904.00
2019-05-13T06:39:47.455Z,8864.00
2019-05-13T06:40:59.299Z,8948.00
2019-05-13T06:41:47.827Z,8952.00
2019-05-13T06:42:46.792Z,8856.00
2019-05-13T06:43:47.505Z,8776.00
2019-05-13T06:44:46.789Z,8772.00
2019-05-13T06:45:46.751Z,8808.00
2019-05-13T06:46:46.792Z,8916.00
2019-05-13T06:47:46.769Z,8960.00
2019-05-13T06:48:46.717Z,9028.00
2019-05-13T06:49:46.735Z,9024.00
2019-05-13T06:50:46.696Z,9272.00
2019-05-13T06:51:46.706Z,9396.00
2019-05-13T06:52:46.721Z,9628.00
2019-05-13T06:53:46.694Z,9588.00
2019-05-13T06:54:46.653Z,9828.00
2019-05-13T06:55:46.640Z,9736.00
2019-05-13T06:56:46.645Z,10224.00
2019-05-13T06:57:46.630Z,10420.00
2019-05-13T06:58:46.629Z,9972.00
2019-05-13T06:59:46.642Z,10452.00
2019-05-13T07:00:46.586Z,10492.00
2019-05-13T07:01:46.576Z,10180.00
2019-05-13T07:02:46.584Z,10388.00
2019-05-13T07:03:46.555Z,10168.00
2019-05-13T07:04:46.545Z,10164.00
2019-05-13T07:05:46.706Z,10120.00
2019-05-13T07:06:46.521Z,10040.00
2019-05-13T07:07:46.512Z,10028.00
2019-05-13T07:08:46.504Z,10124.00
2019-05-13T07:09:46.496Z,10220.00
2019-05-13T07:10:46.480Z,10248.00
2019-05-13T07:11:46.570Z,10204.00
2019-05-13T07:12:46.457Z,10148.00
2019-05-13T07:13:46.451Z,9532.00
2019-05-13T07:14:46.443Z,10048.00
2019-05-13T07:15:46.443Z,9760.00
2019-05-13T07:16:46.411Z,9600.00
2019-05-13T07:17:46.461Z,9532.00
2019-05-13T07:18:46.406Z,9488.00
2019-05-13T07:19:46.385Z,9392.00
2019-05-13T07:20:46.370Z,9332.00
2019-05-13T07:21:46.376Z,9800.00
2019-05-13T07:22:46.348Z,9860.00
2019-05-13T07:23:46.385Z,10056.00
2019-05-13T07:24:46.323Z,9852.00
2019-05-13T07:25:46.315Z,10308.00
2019-05-13T07:26:46.304Z,10380.00
2019-05-13T07:27:46.313Z,10540.00
2019-05-13T07:28:46.281Z,10676.00
2019-05-13T07:29:46.297Z,10596.00
2019-05-13T07:30:46.260Z,10396.00
2019-05-13T07:31:46.247Z,10564.00
2019-05-13T07:32:46.237Z,10372.00
2019-05-13T07:33:46.245Z,10344.00
2019-05-13T07:34:46.228Z,10736.00
2019-05-13T07:35:46.572Z,10804.00
2019-05-13T07:36:46.196Z,11152.00
2019-05-13T07:37:46.183Z,11108.00
2019-05-13T07:38:46.172Z,11576.00
2019-05-13T07:39:46.219Z,11672.00
2019-05-13T07:40:46.148Z,11776.00
2019-05-13T07:41:46.172Z,11584.00
2019-05-13T07:42:46.127Z,11636.00
2019-05-13T07:43:46.113Z,11644.00
2019-05-13T07:44:46.103Z,11704.00
2019-05-13T07:45:46.100Z,11876.00
2019-05-13T07:46:46.083Z,11792.00
2019-05-13T07:47:46.124Z,11500.00
2019-05-13T07:48:46.064Z,11908.00
2019-05-13T07:49:46.049Z,11964.00
2019-05-13T07:50:56.818Z,12092.00
2019-05-13T07:51:47.040Z,12500.00
2019-05-13T07:52:46.016Z,12560.00
2019-05-13T07:53:46.038Z,12256.00
2019-05-13T07:54:45.993Z,12340.00
2019-05-13T07:55:45.997Z,11860.00
2019-05-13T07:56:45.971Z,11916.00
2019-05-13T07:57:45.978Z,11692.00
2019-05-13T07:58:45.949Z,11480.00
2019-05-13T07:59:46.181Z,11440.00
2019-05-13T08:00:45.959Z,11140.00
2019-05-13T08:01:45.918Z,10628.00
2019-05-13T08:02:45.907Z,10432.00
2019-05-13T08:03:45.910Z,11352.00
2019-05-13T08:04:49.230Z,11420.00
2019-05-13T08:05:45.903Z,11508.00
2019-05-13T08:06:45.865Z,10820.00
2019-05-13T08:07:45.858Z,11064.00
2019-05-13T08:08:45.838Z,11140.00
2019-05-13T08:09:45.868Z,10408.00
2019-05-13T08:10:45.819Z,10860.00
2019-05-13T08:12:04.321Z,11172.00
2019-05-13T08:12:46.799Z,10928.00
2019-05-13T08:13:45.784Z,10372.00
2019-05-13T08:14:45.773Z,10288.00
2019-05-13T08:15:45.775Z,10384.00
2019-05-13T08:16:45.753Z,10588.00
2019-05-13T08:17:47.709Z,10516.00
2019-05-13T08:18:45.731Z,10624.00
2019-05-13T08:19:45.724Z,10424.00
2019-05-13T08:20:45.712Z,8808.00
2019-05-13T08:21:45.718Z,8648.00
2019-05-13T08:22:45.687Z,8624.00
2019-05-13T08:23:45.708Z,9112.00
2019-05-13T08:24:45.667Z,9520.00
2019-05-13T08:25:45.657Z,9176.00
2019-05-13T08:26:49.971Z,8412.00
2019-05-13T08:27:46.649Z,7924.00
2019-05-13T08:29:00.302Z,7872.00
2019-05-13T08:29:46.661Z,8048.00
2019-05-13T08:30:45.703Z,8224.00
2019-05-13T08:31:45.590Z,8236.00
2019-05-13T08:32:45.579Z,8572.00
2019-05-13T08:33:45.590Z,8596.00
2019-05-13T08:34:45.557Z,8608.00
2019-05-13T08:35:47.050Z,8576.00
2019-05-13T08:36:46.549Z,8532.00
2019-05-13T08:37:45.525Z,8504.00
2019-05-13T08:38:45.527Z,8228.00
2019-05-13T08:39:45.519Z,8212.00
2019-05-13T08:40:45.496Z,8476.00
2019-05-13T08:41:45.527Z,8492.00
2019-05-13T08:42:45.477Z,8480.00
2019-05-13T08:43:45.457Z,8492.00
2019-05-13T08:44:45.447Z,8332.00
2019-05-13T08:45:45.461Z,8520.00
2019-05-13T08:46:45.430Z,8600.00
2019-05-13T08:47:45.474Z,8692.00
2019-05-13T08:48:45.414Z,8808.00
2019-05-13T08:49:45.392Z,8216.00
2019-05-13T08:50:45.383Z,8716.00
2019-05-13T08:51:45.410Z,8480.00
2019-05-13T08:52:45.394Z,8848.00
2019-05-13T08:53:45.387Z,9000.00
2019-05-13T08:54:45.342Z,9104.00
2019-05-13T08:55:45.331Z,9208.00
2019-05-13T08:56:45.319Z,9332.00
2019-05-13T08:57:45.339Z,9428.00
2019-05-13T08:58:45.338Z,9616.00
2019-05-13T08:59:45.313Z,9724.00
2019-05-13T09:00:45.276Z,9548.00
2019-05-13T09:01:45.303Z,9860.00
2019-05-13T09:02:45.252Z,9952.00
2019-05-13T09:03:45.286Z,9920.00
2019-05-13T09:04:45.236Z,10088.00
2019-05-13T09:05:45.272Z,10172.00
2019-05-13T09:06:45.230Z,10260.00
2019-05-13T09:07:45.199Z,10424.00
2019-05-13T09:08:45.189Z,10512.00
2019-05-13T09:09:45.191Z,10384.00
2019-05-13T09:10:45.165Z,10504.00
2019-05-13T09:11:45.198Z,10488.00
2019-05-13T09:12:45.146Z,10068.00
2019-05-13T09:13:45.133Z,10496.00
2019-05-13T09:14:45.125Z,10472.00
2019-05-13T09:15:45.134Z,10532.00
2019-05-13T09:16:45.205Z,10704.00
2019-05-13T09:17:45.119Z,10700.00
2019-05-13T09:18:45.096Z,11076.00
2019-05-13T09:19:45.067Z,11388.00
2019-05-13T09:20:45.057Z,11336.00
2019-05-13T09:21:45.053Z,11160.00
2019-05-13T09:22:45.038Z,11072.00
2019-05-13T09:23:45.063Z,11068.00
2019-05-13T09:24:45.014Z,11104.00
2019-05-13T09:25:45.005Z,11012.00
2019-05-13T09:26:45.142Z,11096.00
2019-05-13T09:27:45.005Z,11224.00
2019-05-13T09:28:44.971Z,11308.00
2019-05-13T09:29:44.997Z,11532.00
2019-05-13T09:30:44.951Z,11748.00
2019-05-13T09:31:44.938Z,11944.00
2019-05-13T09:32:44.930Z,12008.00
2019-05-13T09:33:44.939Z,12260.00
2019-05-13T09:34:44.905Z,12120.00
2019-05-13T09:35:44.929Z,12360.00
2019-05-13T09:36:44.890Z,12268.00
2019-05-13T09:37:44.869Z,12288.00
2019-05-13T09:38:44.859Z,12460.00
2019-05-13T09:39:44.867Z,12384.00
2019-05-13T09:40:44.841Z,12356.00
2019-05-13T09:41:44.912Z,12288.00
2019-05-13T09:42:51.072Z,12036.00
2019-05-13T09:43:45.809Z,11480.00
2019-05-13T09:44:44.792Z,11264.00
2019-05-13T09:45:44.790Z,10544.00
2019-05-13T09:46:44.782Z,10264.00
2019-05-13T09:47:44.800Z,9964.00
2019-05-13T09:48:44.759Z,9556.00
2019-05-13T09:49:44.743Z,9404.00
2019-05-13T09:50:44.728Z,9040.00
2019-05-13T09:51:44.721Z,8676.00
2019-05-13T09:52:44.726Z,8744.00
2019-05-13T09:53:44.821Z,8648.00
2019-05-13T09:54:44.687Z,8416.00
2019-05-13T09:55:44.670Z,8704.00
2019-05-13T09:56:44.679Z,8772.00
2019-05-13T09:57:44.658Z,9092.00
2019-05-13T09:58:44.638Z,8928.00
2019-05-13T09:59:44.665Z,9252.00
2019-05-13T10:00:44.616Z,9284.00
2019-05-13T10:01:44.618Z,9156.00
2019-05-13T10:02:44.610Z,8680.00
2019-05-13T10:03:53.928Z,8928.00
2019-05-13T10:04:45.618Z,8956.00
2019-05-13T10:05:44.613Z,9108.00
2019-05-13T10:06:44.551Z,9252.00
2019-05-13T10:07:44.539Z,9484.00
2019-05-13T10:08:44.536Z,9692.00
2019-05-13T10:09:48.277Z,9648.00
2019-05-13T10:10:44.605Z,9448.00
2019-05-13T10:11:44.501Z,10004.00
2019-05-13T10:12:44.491Z,10332.00
2019-05-13T10:13:44.482Z,10340.00
2019-05-13T10:14:44.504Z,10184.00
2019-05-13T10:15:48.612Z,10100.00
2019-05-13T10:16:44.521Z,10088.00
2019-05-13T10:17:44.431Z,10120.00
2019-05-13T10:18:44.420Z,10116.00
2019-05-13T10:19:44.440Z,10092.00
2019-05-13T10:20:44.402Z,10252.00
2019-05-13T10:21:44.385Z,10352.00
2019-05-13T10:22:44.407Z,9772.00
2019-05-13T10:23:44.362Z,9904.00
2019-05-13T10:24:44.390Z,9968.00
2019-05-13T10:25:44.340Z,10256.00
2019-05-13T10:26:44.331Z,10468.00
2019-05-13T10:27:44.333Z,10288.00
2019-05-13T10:28:44.349Z,10392.00
2019-05-13T10:29:44.297Z,10504.00
2019-05-13T10:30:44.350Z,10092.00
2019-05-13T10:31:44.290Z,10064.00
2019-05-13T10:32:44.284Z,10112.00
2019-05-13T10:33:44.326Z,10072.00
2019-05-13T10:34:44.289Z,9836.00
2019-05-13T10:35:44.226Z,9888.00
2019-05-13T10:36:44.229Z,10096.00
2019-05-13T10:37:44.203Z,10052.00
2019-05-13T10:38:44.245Z,10396.00
2019-05-13T10:39:44.193Z,10616.00
2019-05-13T10:40:44.226Z,10924.00
2019-05-13T10:41:44.177Z,11180.00
2019-05-13T10:42:44.150Z,11580.00
2019-05-13T10:43:44.628Z,14720.00
2019-05-13T10:44:44.128Z,18496.00
2019-05-13T10:45:44.114Z,19776.00
2019-05-13T10:46:44.185Z,20448.00
2019-05-13T10:47:44.462Z,20896.00
2019-05-13T10:48:44.226Z,21280.00
2019-05-13T10:49:44.077Z,20960.00
2019-05-13T10:50:44.126Z,20448.00
2019-05-13T10:51:44.059Z,17888.00
2019-05-13T10:52:44.092Z,21184.00
2019-05-13T10:53:44.083Z,20480.00
2019-05-13T10:54:44.045Z,17984.00
2019-05-13T10:55:44.035Z,18848.00
2019-05-13T10:56:44.001Z,19808.00
2019-05-13T10:57:43.984Z,21120.00
2019-05-13T10:58:44.130Z,21568.00
2019-05-13T10:59:43.960Z,21632.00
2019-05-13T11:00:43.953Z,21696.00
2019-05-13T11:01:43.940Z,22336.00
2019-05-13T11:02:43.931Z,23200.00
2019-05-13T11:03:43.922Z,23168.00
2019-05-13T11:04:44.029Z,23072.00
2019-05-13T11:05:44.774Z,23296.00
2019-05-13T11:06:43.998Z,24000.00
2019-05-13T11:07:43.882Z,23744.00
2019-05-13T11:08:43.972Z,24672.00
2019-05-13T11:09:43.906Z,25312.00
2019-05-13T11:10:43.964Z,24416.00
2019-05-13T11:11:43.910Z,25632.00
2019-05-13T11:12:43.826Z,25568.00
2019-05-13T11:13:55.194Z,22336.00
2019-05-13T11:14:46.791Z,26880.00
2019-05-13T11:15:45.535Z,26784.00
2019-05-13T11:16:43.798Z,26720.00
2019-05-13T11:17:43.780Z,27328.00
2019-05-13T11:18:43.755Z,28512.00
2019-05-13T11:19:43.760Z,24928.00
2019-05-13T11:20:43.737Z,28480.00
2019-05-13T11:21:44.463Z,28608.00
2019-05-13T11:22:43.724Z,27968.00
2019-05-13T11:23:43.702Z,28096.00
2019-05-13T11:24:43.700Z,28640.00
2019-05-13T11:25:43.682Z,29120.00
2019-05-13T11:26:43.665Z,29472.00
2019-05-13T11:27:43.708Z,27232.00
2019-05-13T11:28:43.646Z,25984.00
2019-05-13T11:29:43.631Z,27712.00
2019-05-13T11:30:43.629Z,29056.00
2019-05-13T11:31:43.614Z,30144.00
2019-05-13T11:32:43.602Z,30656.00
2019-05-13T11:33:43.646Z,32096.00
2019-05-13T11:34:43.579Z,32352.00
2019-05-13T11:35:43.572Z,33024.00
2019-05-13T11:36:43.670Z,33824.00
2019-05-13T11:37:43.662Z,34816.00
2019-05-13T11:38:43.606Z,34816.00
2019-05-13T11:39:43.574Z,35808.00
2019-05-13T11:40:43.514Z,36608.00
2019-05-13T11:41:43.502Z,38240.00
2019-05-13T11:42:43.524Z,38176.00
2019-05-13T11:43:43.484Z,36416.00
2019-05-13T11:44:43.470Z,38496.00
2019-05-13T11:45:43.495Z,41984.00
2019-05-13T11:46:43.450Z,42336.00
2019-05-13T11:47:43.451Z,43520.00
2019-05-13T11:48:43.430Z,43360.00
2019-05-13T11:49:43.423Z,44544.00
2019-05-13T11:50:50.107Z,45984.00
2019-05-13T11:51:44.441Z,45728.00
2019-05-13T11:52:43.388Z,44288.00
2019-05-13T11:53:43.380Z,42880.00
2019-05-13T11:54:43.403Z,42560.00
2019-05-13T11:55:43.358Z,42944.00
2019-05-13T11:56:49.197Z,44640.00
2019-05-13T11:57:44.682Z,49376.00
2019-05-13T11:58:43.401Z,51520.00
2019-05-13T11:59:43.355Z,51456.00
2019-05-13T12:00:43.327Z,51808.00
2019-05-13T12:01:43.284Z,53216.00
2019-05-13T12:02:50.241Z,52384.00
2019-05-13T12:03:44.298Z,52352.00
2019-05-13T12:04:43.967Z,52736.00
2019-05-13T12:05:43.285Z,53504.00
2019-05-13T12:06:48.557Z,53728.00
2019-05-13T12:07:44.223Z,53984.00
2019-05-13T12:08:50.465Z,54368.00
2019-05-13T12:09:44.234Z,54624.00
2019-05-13T12:10:44.120Z,54656.00
2019-05-13T12:11:43.176Z,54240.00
2019-05-13T12:12:44.044Z,51840.00
2019-05-13T12:13:43.165Z,56288.00
2019-05-13T12:15:05.089Z,57568.00
2019-05-13T12:15:49.447Z,56800.00
2019-05-13T12:16:44.124Z,54048.00
2019-05-13T12:17:43.149Z,56224.00
2019-05-13T12:18:43.885Z,57472.00